Uleta, Florida
Current Conditions -  °F | °C
As of 8:53 PM on Monday 20 Oct 2014 (Local Time) from KHWO Reporting Station
Broken Clouds Broken Clouds  
Wind Chill: 75°   Ceiling: 6000
Heat Index: 75°   Visibility: 10mi
Dew Point: 72°   Wind: 3mph
Humidity: 90%   Direction: 250°WSW
Pressure: 29.98"   Gusts: NA
Location:  25.9298°N, 80.1792°W
Report Text: KHWO 210053Z AUTO 25003KT 10SM BKN060 24/22 A2998 RMK AO2 SLP152 T02390222
Loading
Personal Weather Stations






























Interactive Weather Map
Tropical Storm Tracking
New forecast layout! Learn more

10-Day Weather Forecast

Advertisements
Track Severe Weather on mobile